sensor_id;sensor_type;location;lat;lon;timestamp;P1;durP1;ratioP1;P2;durP2;ratioP2
13969;SDS011;7057;49.984;8.404;2022-11-14T00:00:50;9.23;;;7.27;;
13969;SDS011;7057;49.984;8.404;2022-11-14T00:03:18;10.87;;;7.13;;
13969;SDS011;7057;49.984;8.404;2022-11-14T00:05:45;11.77;;;8.17;;
13969;SDS011;7057;49.984;8.404;2022-11-14T00:08:15;9.87;;;6.37;;
13969;SDS011;7057;49.984;8.404;2022-11-14T00:10:44;8.57;;;6.73;;
13969;SDS011;7057;49.984;8.404;2022-11-14T00:13:13;10.27;;;7.13;;
13969;SDS011;7057;49.984;8.404;2022-11-14T00:15:42;9.10;;;6.93;;
13969;SDS011;7057;49.984;8.404;2022-11-14T00:18:10;9.20;;;6.83;;
13969;SDS011;7057;49.984;8.404;2022-11-14T00:20:37;10.77;;;6.63;;
13969;SDS011;7057;49.984;8.404;2022-11-14T00:23:04;11.20;;;7.53;;
13969;SDS011;7057;49.984;8.404;2022-11-14T00:25:33;11.33;;;7.30;;
13969;SDS011;7057;49.984;8.404;2022-11-14T00:28:00;8.87;;;7.17;;
13969;SDS011;7057;49.984;8.404;2022-11-14T00:30:27;8.33;;;7.47;;
13969;SDS011;7057;49.984;8.404;2022-11-14T00:32:54;10.63;;;7.43;;
13969;SDS011;7057;49.984;8.404;2022-11-14T00:35:21;11.87;;;7.50;;
13969;SDS011;7057;49.984;8.404;2022-11-14T00:37:49;11.57;;;7.90;;
13969;SDS011;7057;49.984;8.404;2022-11-14T00:40:16;14.07;;;8.40;;
13969;SDS011;7057;49.984;8.404;2022-11-14T00:42:44;14.80;;;9.70;;
13969;SDS011;7057;49.984;8.404;2022-11-14T00:45:12;11.93;;;9.13;;
13969;SDS011;7057;49.984;8.404;2022-11-14T00:47:39;13.17;;;9.57;;
13969;SDS011;7057;49.984;8.404;2022-11-14T00:50:06;16.83;;;10.13;;
13969;SDS011;7057;49.984;8.404;2022-11-14T00:52:35;19.77;;;11.70;;
13969;SDS011;7057;49.984;8.404;2022-11-14T00:55:02;19.27;;;12.17;;
13969;SDS011;7057;49.984;8.404;2022-11-14T00:57:30;18.37;;;12.67;;
13969;SDS011;7057;49.984;8.404;2022-11-14T00:59:58;18.90;;;11.07;;
13969;SDS011;7057;49.984;8.404;2022-11-14T01:02:26;18.60;;;11.03;;
13969;SDS011;7057;49.984;8.404;2022-11-14T01:04:53;21.20;;;11.70;;
13969;SDS011;7057;49.984;8.404;2022-11-14T01:07:20;21.13;;;12.00;;
13969;SDS011;7057;49.984;8.404;2022-11-14T01:09:47;21.90;;;11.67;;
13969;SDS011;7057;49.984;8.404;2022-11-14T01:12:14;20.80;;;11.57;;
13969;SDS011;7057;49.984;8.404;2022-11-14T01:14:41;19.83;;;11.33;;
13969;SDS011;7057;49.984;8.404;2022-11-14T01:17:10;21.47;;;10.90;;
13969;SDS011;7057;49.984;8.404;2022-11-14T01:19:37;24.37;;;12.20;;
13969;SDS011;7057;49.984;8.404;2022-11-14T01:22:04;23.97;;;11.50;;
13969;SDS011;7057;49.984;8.404;2022-11-14T01:24:31;20.67;;;13.07;;
13969;SDS011;7057;49.984;8.404;2022-11-14T01:26:59;22.73;;;12.33;;
13969;SDS011;7057;49.984;8.404;2022-11-14T01:29:27;19.73;;;12.90;;
13969;SDS011;7057;49.984;8.404;2022-11-14T01:31:54;19.07;;;12.03;;
13969;SDS011;7057;49.984;8.404;2022-11-14T01:34:23;24.53;;;13.97;;
13969;SDS011;7057;49.984;8.404;2022-11-14T01:36:51;25.03;;;14.53;;
13969;SDS011;7057;49.984;8.404;2022-11-14T01:39:18;24.77;;;13.33;;
13969;SDS011;7057;49.984;8.404;2022-11-14T01:41:45;31.47;;;14.10;;
13969;SDS011;7057;49.984;8.404;2022-11-14T01:44:12;29.90;;;14.63;;
13969;SDS011;7057;49.984;8.404;2022-11-14T01:46:41;24.27;;;14.00;;
13969;SDS011;7057;49.984;8.404;2022-11-14T01:49:14;24.87;;;13.03;;
13969;SDS011;7057;49.984;8.404;2022-11-14T01:51:46;26.07;;;13.67;;
13969;SDS011;7057;49.984;8.404;2022-11-14T01:54:17;23.87;;;13.10;;
13969;SDS011;7057;49.984;8.404;2022-11-14T01:56:47;23.40;;;14.27;;
13969;SDS011;7057;49.984;8.404;2022-11-14T01:59:19;22.23;;;13.50;;
13969;SDS011;7057;49.984;8.404;2022-11-14T02:01:50;29.43;;;13.77;;
13969;SDS011;7057;49.984;8.404;2022-11-14T02:04:20;32.40;;;14.97;;
13969;SDS011;7057;49.984;8.404;2022-11-14T02:06:52;25.50;;;13.60;;
13969;SDS011;7057;49.984;8.404;2022-11-14T02:09:22;23.47;;;12.97;;
13969;SDS011;7057;49.984;8.404;2022-11-14T02:11:50;23.97;;;12.67;;
13969;SDS011;7057;49.984;8.404;2022-11-14T02:14:19;23.77;;;13.27;;
13969;SDS011;7057;49.984;8.404;2022-11-14T02:16:46;25.57;;;13.10;;
13969;SDS011;7057;49.984;8.404;2022-11-14T02:19:15;25.07;;;13.47;;
13969;SDS011;7057;49.984;8.404;2022-11-14T02:21:44;25.70;;;13.53;;
13969;SDS011;7057;49.984;8.404;2022-11-14T02:24:12;22.53;;;12.83;;
13969;SDS011;7057;49.984;8.404;2022-11-14T02:26:39;24.20;;;13.40;;
13969;SDS011;7057;49.984;8.404;2022-11-14T02:29:08;26.97;;;15.23;;
13969;SDS011;7057;49.984;8.404;2022-11-14T02:31:36;25.90;;;14.67;;
13969;SDS011;7057;49.984;8.404;2022-11-14T02:34:04;23.37;;;13.87;;
13969;SDS011;7057;49.984;8.404;2022-11-14T02:36:31;35.17;;;14.80;;
13969;SDS011;7057;49.984;8.404;2022-11-14T02:38:59;23.53;;;14.40;;
13969;SDS011;7057;49.984;8.404;2022-11-14T02:41:27;30.27;;;14.60;;
13969;SDS011;7057;49.984;8.404;2022-11-14T02:43:54;24.50;;;14.67;;
13969;SDS011;7057;49.984;8.404;2022-11-14T02:46:21;29.33;;;15.30;;
13969;SDS011;7057;49.984;8.404;2022-11-14T02:48:48;25.63;;;14.70;;
13969;SDS011;7057;49.984;8.404;2022-11-14T02:51:15;26.20;;;14.47;;
13969;SDS011;7057;49.984;8.404;2022-11-14T02:53:42;23.87;;;13.03;;
13969;SDS011;7057;49.984;8.404;2022-11-14T02:56:11;18.87;;;12.60;;
13969;SDS011;7057;49.984;8.404;2022-11-14T02:58:38;21.90;;;12.80;;
13969;SDS011;7057;49.984;8.404;2022-11-14T03:01:05;23.13;;;13.27;;
13969;SDS011;7057;49.984;8.404;2022-11-14T03:03:32;25.10;;;13.27;;
13969;SDS011;7057;49.984;8.404;2022-11-14T03:06:00;26.27;;;12.60;;
13969;SDS011;7057;49.984;8.404;2022-11-14T03:08:28;22.30;;;13.13;;
13969;SDS011;7057;49.984;8.404;2022-11-14T03:11:02;24.60;;;13.27;;
13969;SDS011;7057;49.984;8.404;2022-11-14T03:13:31;20.43;;;12.30;;
13969;SDS011;7057;49.984;8.404;2022-11-14T03:16:03;21.00;;;13.13;;
13969;SDS011;7057;49.984;8.404;2022-11-14T03:18:31;21.03;;;13.03;;
13969;SDS011;7057;49.984;8.404;2022-11-14T03:21:03;23.93;;;13.43;;
13969;SDS011;7057;49.984;8.404;2022-11-14T03:23:31;20.63;;;12.73;;
13969;SDS011;7057;49.984;8.404;2022-11-14T03:25:59;26.83;;;13.33;;
13969;SDS011;7057;49.984;8.404;2022-11-14T03:28:26;19.53;;;12.63;;
13969;SDS011;7057;49.984;8.404;2022-11-14T03:30:55;20.23;;;12.03;;
13969;SDS011;7057;49.984;8.404;2022-11-14T03:33:23;21.97;;;12.07;;
13969;SDS011;7057;49.984;8.404;2022-11-14T03:35:50;22.87;;;13.33;;
13969;SDS011;7057;49.984;8.404;2022-11-14T03:38:18;19.67;;;11.90;;
13969;SDS011;7057;49.984;8.404;2022-11-14T03:40:47;21.10;;;12.07;;
13969;SDS011;7057;49.984;8.404;2022-11-14T03:43:15;21.03;;;12.83;;
13969;SDS011;7057;49.984;8.404;2022-11-14T03:45:42;21.73;;;12.80;;
13969;SDS011;7057;49.984;8.404;2022-11-14T03:48:11;22.40;;;14.20;;
13969;SDS011;7057;49.984;8.404;2022-11-14T03:50:38;23.90;;;13.50;;
13969;SDS011;7057;49.984;8.404;2022-11-14T03:53:05;22.33;;;13.33;;
13969;SDS011;7057;49.984;8.404;2022-11-14T03:55:33;25.13;;;13.70;;
13969;SDS011;7057;49.984;8.404;2022-11-14T03:58:00;21.33;;;13.00;;
13969;SDS011;7057;49.984;8.404;2022-11-14T04:00:27;19.97;;;12.47;;
13969;SDS011;7057;49.984;8.404;2022-11-14T04:02:55;19.97;;;12.37;;
13969;SDS011;7057;49.984;8.404;2022-11-14T04:05:24;22.00;;;13.17;;
13969;SDS011;7057;49.984;8.404;2022-11-14T04:07:51;25.77;;;13.87;;
13969;SDS011;7057;49.984;8.404;2022-11-14T04:10:18;22.23;;;12.60;;
13969;SDS011;7057;49.984;8.404;2022-11-14T04:12:46;20.87;;;10.53;;
13969;SDS011;7057;49.984;8.404;2022-11-14T04:15:14;19.83;;;12.50;;
13969;SDS011;7057;49.984;8.404;2022-11-14T04:17:42;21.37;;;11.30;;
13969;SDS011;7057;49.984;8.404;2022-11-14T04:20:09;17.53;;;10.33;;
13969;SDS011;7057;49.984;8.404;2022-11-14T04:22:38;20.33;;;12.23;;
13969;SDS011;7057;49.984;8.404;2022-11-14T04:25:06;19.70;;;12.20;;
13969;SDS011;7057;49.984;8.404;2022-11-14T04:27:34;20.53;;;10.97;;
13969;SDS011;7057;49.984;8.404;2022-11-14T04:30:02;17.30;;;10.10;;
13969;SDS011;7057;49.984;8.404;2022-11-14T04:32:29;16.13;;;10.33;;
13969;SDS011;7057;49.984;8.404;2022-11-14T04:34:57;18.53;;;10.80;;
13969;SDS011;7057;49.984;8.404;2022-11-14T04:37:24;15.53;;;10.27;;
13969;SDS011;7057;49.984;8.404;2022-11-14T04:39:52;14.47;;;9.80;;
13969;SDS011;7057;49.984;8.404;2022-11-14T04:42:23;17.57;;;11.10;;
13969;SDS011;7057;49.984;8.404;2022-11-14T04:44:50;19.60;;;10.83;;
13969;SDS011;7057;49.984;8.404;2022-11-14T04:47:17;17.87;;;10.43;;
13969;SDS011;7057;49.984;8.404;2022-11-14T04:49:44;17.23;;;10.30;;
13969;SDS011;7057;49.984;8.404;2022-11-14T04:52:12;18.30;;;11.23;;
13969;SDS011;7057;49.984;8.404;2022-11-14T04:54:39;14.23;;;10.77;;
13969;SDS011;7057;49.984;8.404;2022-11-14T04:57:07;18.40;;;11.70;;
13969;SDS011;7057;49.984;8.404;2022-11-14T04:59:34;16.73;;;11.07;;
13969;SDS011;7057;49.984;8.404;2022-11-14T05:02:02;17.73;;;10.27;;
13969;SDS011;7057;49.984;8.404;2022-11-14T05:04:29;15.87;;;10.53;;
13969;SDS011;7057;49.984;8.404;2022-11-14T05:06:56;19.13;;;11.47;;
13969;SDS011;7057;49.984;8.404;2022-11-14T05:09:23;19.07;;;12.10;;
13969;SDS011;7057;49.984;8.404;2022-11-14T05:11:50;16.07;;;10.97;;
13969;SDS011;7057;49.984;8.404;2022-11-14T05:14:19;14.77;;;10.17;;
13969;SDS011;7057;49.984;8.404;2022-11-14T05:16:46;17.03;;;9.90;;
13969;SDS011;7057;49.984;8.404;2022-11-14T05:19:13;16.03;;;10.90;;
13969;SDS011;7057;49.984;8.404;2022-11-14T05:21:41;14.10;;;9.53;;
13969;SDS011;7057;49.984;8.404;2022-11-14T05:24:08;18.90;;;11.20;;
13969;SDS011;7057;49.984;8.404;2022-11-14T05:26:35;15.67;;;9.07;;
13969;SDS011;7057;49.984;8.404;2022-11-14T05:29:02;17.20;;;11.23;;
13969;SDS011;7057;49.984;8.404;2022-11-14T05:31:31;17.43;;;11.73;;
13969;SDS011;7057;49.984;8.404;2022-11-14T05:33:58;20.47;;;12.33;;
13969;SDS011;7057;49.984;8.404;2022-11-14T05:36:25;15.03;;;9.40;;
13969;SDS011;7057;49.984;8.404;2022-11-14T05:38:52;16.60;;;11.27;;
13969;SDS011;7057;49.984;8.404;2022-11-14T05:41:20;18.33;;;11.30;;
13969;SDS011;7057;49.984;8.404;2022-11-14T05:43:47;15.73;;;10.27;;
13969;SDS011;7057;49.984;8.404;2022-11-14T05:46:15;15.07;;;10.40;;
13969;SDS011;7057;49.984;8.404;2022-11-14T05:48:43;16.87;;;10.70;;
13969;SDS011;7057;49.984;8.404;2022-11-14T05:51:11;13.97;;;9.10;;
13969;SDS011;7057;49.984;8.404;2022-11-14T05:53:39;19.03;;;11.93;;
13969;SDS011;7057;49.984;8.404;2022-11-14T05:56:08;15.93;;;10.23;;
13969;SDS011;7057;49.984;8.404;2022-11-14T05:58:36;20.93;;;12.07;;
13969;SDS011;7057;49.984;8.404;2022-11-14T06:01:05;18.80;;;12.07;;
13969;SDS011;7057;49.984;8.404;2022-11-14T06:03:35;17.27;;;11.13;;
13969;SDS011;7057;49.984;8.404;2022-11-14T06:06:06;18.20;;;11.93;;
13969;SDS011;7057;49.984;8.404;2022-11-14T06:08:35;15.73;;;10.30;;
13969;SDS011;7057;49.984;8.404;2022-11-14T06:11:03;15.03;;;10.17;;
13969;SDS011;7057;49.984;8.404;2022-11-14T06:13:31;15.87;;;10.43;;
13969;SDS011;7057;49.984;8.404;2022-11-14T06:15:59;16.70;;;11.80;;
13969;SDS011;7057;49.984;8.404;2022-11-14T06:18:26;13.23;;;9.73;;
13969;SDS011;7057;49.984;8.404;2022-11-14T06:20:57;14.00;;;10.20;;
13969;SDS011;7057;49.984;8.404;2022-11-14T06:23:27;14.37;;;8.93;;
13969;SDS011;7057;49.984;8.404;2022-11-14T06:25:57;11.80;;;8.37;;
13969;SDS011;7057;49.984;8.404;2022-11-14T06:28:25;15.37;;;10.50;;
13969;SDS011;7057;49.984;8.404;2022-11-14T06:30:55;16.40;;;10.73;;
13969;SDS011;7057;49.984;8.404;2022-11-14T06:33:24;15.03;;;9.60;;
13969;SDS011;7057;49.984;8.404;2022-11-14T06:35:55;16.20;;;10.77;;
13969;SDS011;7057;49.984;8.404;2022-11-14T06:38:23;17.27;;;10.73;;
13969;SDS011;7057;49.984;8.404;2022-11-14T06:40:52;15.27;;;10.63;;
13969;SDS011;7057;49.984;8.404;2022-11-14T06:43:26;17.20;;;11.50;;
13969;SDS011;7057;49.984;8.404;2022-11-14T06:45:53;14.43;;;10.10;;
13969;SDS011;7057;49.984;8.404;2022-11-14T06:48:20;14.43;;;10.23;;
13969;SDS011;7057;49.984;8.404;2022-11-14T06:50:50;16.30;;;10.67;;
13969;SDS011;7057;49.984;8.404;2022-11-14T06:53:18;18.30;;;10.60;;
13969;SDS011;7057;49.984;8.404;2022-11-14T06:55:52;16.27;;;10.93;;
13969;SDS011;7057;49.984;8.404;2022-11-14T06:58:20;18.97;;;12.20;;
13969;SDS011;7057;49.984;8.404;2022-11-14T07:00:48;19.17;;;11.30;;
13969;SDS011;7057;49.984;8.404;2022-11-14T07:03:15;20.60;;;12.17;;
13969;SDS011;7057;49.984;8.404;2022-11-14T07:05:42;15.80;;;11.20;;
13969;SDS011;7057;49.984;8.404;2022-11-14T07:08:09;20.47;;;12.10;;
13969;SDS011;7057;49.984;8.404;2022-11-14T07:10:36;17.93;;;11.77;;
13969;SDS011;7057;49.984;8.404;2022-11-14T07:13:05;19.90;;;11.87;;
13969;SDS011;7057;49.984;8.404;2022-11-14T07:15:35;19.40;;;13.03;;
13969;SDS011;7057;49.984;8.404;2022-11-14T07:18:02;23.40;;;12.80;;
13969;SDS011;7057;49.984;8.404;2022-11-14T07:20:30;21.03;;;13.53;;
13969;SDS011;7057;49.984;8.404;2022-11-14T07:22:57;16.13;;;9.77;;
13969;SDS011;7057;49.984;8.404;2022-11-14T07:25:24;19.53;;;12.20;;
13969;SDS011;7057;49.984;8.404;2022-11-14T07:27:51;21.30;;;12.63;;
13969;SDS011;7057;49.984;8.404;2022-11-14T07:30:20;20.70;;;12.30;;
13969;SDS011;7057;49.984;8.404;2022-11-14T07:32:53;21.03;;;12.67;;
13969;SDS011;7057;49.984;8.404;2022-11-14T07:35:21;21.23;;;12.77;;
13969;SDS011;7057;49.984;8.404;2022-11-14T07:37:49;20.60;;;12.40;;
13969;SDS011;7057;49.984;8.404;2022-11-14T07:40:16;20.83;;;12.17;;
13969;SDS011;7057;49.984;8.404;2022-11-14T07:42:44;21.80;;;13.63;;
13969;SDS011;7057;49.984;8.404;2022-11-14T07:45:11;20.77;;;13.67;;
13969;SDS011;7057;49.984;8.404;2022-11-14T07:47:40;17.87;;;13.17;;
13969;SDS011;7057;49.984;8.404;2022-11-14T07:50:07;18.30;;;12.37;;
13969;SDS011;7057;49.984;8.404;2022-11-14T07:52:35;23.17;;;14.47;;
13969;SDS011;7057;49.984;8.404;2022-11-14T07:55:02;22.40;;;14.67;;
13969;SDS011;7057;49.984;8.404;2022-11-14T07:57:30;25.10;;;15.23;;
13969;SDS011;7057;49.984;8.404;2022-11-14T07:59:57;22.13;;;13.83;;
13969;SDS011;7057;49.984;8.404;2022-11-14T08:02:24;25.60;;;14.27;;
13969;SDS011;7057;49.984;8.404;2022-11-14T08:04:53;17.30;;;9.10;;
13969;SDS011;7057;49.984;8.404;2022-11-14T08:07:20;23.47;;;14.87;;
13969;SDS011;7057;49.984;8.404;2022-11-14T08:09:47;25.90;;;15.47;;
13969;SDS011;7057;49.984;8.404;2022-11-14T08:12:14;26.70;;;16.00;;
13969;SDS011;7057;49.984;8.404;2022-11-14T08:14:42;28.53;;;15.80;;
13969;SDS011;7057;49.984;8.404;2022-11-14T08:17:09;29.87;;;15.63;;
13969;SDS011;7057;49.984;8.404;2022-11-14T08:19:36;15.57;;;10.17;;
13969;SDS011;7057;49.984;8.404;2022-11-14T08:22:05;22.97;;;13.73;;
13969;SDS011;7057;49.984;8.404;2022-11-14T08:24:32;26.83;;;16.70;;
13969;SDS011;7057;49.984;8.404;2022-11-14T08:26:59;31.77;;;16.00;;
13969;SDS011;7057;49.984;8.404;2022-11-14T08:29:26;24.57;;;13.10;;
13969;SDS011;7057;49.984;8.404;2022-11-14T08:31:53;28.90;;;16.30;;
13969;SDS011;7057;49.984;8.404;2022-11-14T08:34:21;16.47;;;9.60;;
13969;SDS011;7057;49.984;8.404;2022-11-14T08:36:48;28.57;;;15.00;;
13969;SDS011;7057;49.984;8.404;2022-11-14T08:39:16;26.00;;;14.53;;
13969;SDS011;7057;49.984;8.404;2022-11-14T08:41:43;28.30;;;16.60;;
13969;SDS011;7057;49.984;8.404;2022-11-14T08:44:11;29.90;;;16.83;;
13969;SDS011;7057;49.984;8.404;2022-11-14T08:46:38;28.07;;;15.97;;
13969;SDS011;7057;49.984;8.404;2022-11-14T08:49:05;30.07;;;18.07;;
13969;SDS011;7057;49.984;8.404;2022-11-14T08:51:32;28.10;;;17.40;;
13969;SDS011;7057;49.984;8.404;2022-11-14T08:54:00;31.80;;;16.63;;
13969;SDS011;7057;49.984;8.404;2022-11-14T08:56:28;27.80;;;17.00;;
13969;SDS011;7057;49.984;8.404;2022-11-14T08:58:55;27.40;;;15.73;;
13969;SDS011;7057;49.984;8.404;2022-11-14T09:01:23;30.13;;;15.00;;
13969;SDS011;7057;49.984;8.404;2022-11-14T09:03:50;32.00;;;18.00;;
13969;SDS011;7057;49.984;8.404;2022-11-14T09:06:17;14.27;;;7.20;;
13969;SDS011;7057;49.984;8.404;2022-11-14T09:08:44;23.63;;;14.23;;
13969;SDS011;7057;49.984;8.404;2022-11-14T09:11:11;29.90;;;14.87;;
13969;SDS011;7057;49.984;8.404;2022-11-14T09:13:40;21.07;;;12.80;;
13969;SDS011;7057;49.984;8.404;2022-11-14T09:16:07;29.07;;;15.70;;
13969;SDS011;7057;49.984;8.404;2022-11-14T09:18:34;29.27;;;18.03;;
13969;SDS011;7057;49.984;8.404;2022-11-14T09:21:03;26.23;;;15.40;;
13969;SDS011;7057;49.984;8.404;2022-11-14T09:23:32;30.90;;;16.40;;
13969;SDS011;7057;49.984;8.404;2022-11-14T09:26:02;17.80;;;8.30;;
13969;SDS011;7057;49.984;8.404;2022-11-14T09:28:30;30.23;;;16.37;;
13969;SDS011;7057;49.984;8.404;2022-11-14T09:31:01;19.40;;;11.47;;
13969;SDS011;7057;49.984;8.404;2022-11-14T09:33:31;24.77;;;14.03;;
13969;SDS011;7057;49.984;8.404;2022-11-14T09:35:59;26.00;;;15.57;;
13969;SDS011;7057;49.984;8.404;2022-11-14T09:38:28;26.27;;;15.03;;
13969;SDS011;7057;49.984;8.404;2022-11-14T09:40:59;26.47;;;15.57;;
13969;SDS011;7057;49.984;8.404;2022-11-14T09:43:41;28.60;;;14.43;;
13969;SDS011;7057;49.984;8.404;2022-11-14T09:46:24;24.90;;;15.10;;
13969;SDS011;7057;49.984;8.404;2022-11-14T09:48:57;22.47;;;12.90;;
13969;SDS011;7057;49.984;8.404;2022-11-14T09:51:26;27.23;;;15.67;;
13969;SDS011;7057;49.984;8.404;2022-11-14T09:53:58;27.17;;;15.10;;
13969;SDS011;7057;49.984;8.404;2022-11-14T09:56:31;23.13;;;14.03;;
13969;SDS011;7057;49.984;8.404;2022-11-14T09:58:59;24.17;;;12.37;;
13969;SDS011;7057;49.984;8.404;2022-11-14T10:01:31;17.73;;;9.87;;
13969;SDS011;7057;49.984;8.404;2022-11-14T10:04:09;22.80;;;13.43;;
13969;SDS011;7057;49.984;8.404;2022-11-14T10:06:50;23.33;;;14.50;;
13969;SDS011;7057;49.984;8.404;2022-11-14T10:09:48;23.83;;;14.90;;
13969;SDS011;7057;49.984;8.404;2022-11-14T10:12:20;23.73;;;14.40;;
13969;SDS011;7057;49.984;8.404;2022-11-14T10:17:43;22.77;;;12.40;;
13969;SDS011;7057;49.984;8.404;2022-11-14T10:20:26;21.73;;;13.37;;
13969;SDS011;7057;49.984;8.404;2022-11-14T10:25:53;24.90;;;13.90;;
13969;SDS011;7057;49.984;8.404;2022-11-14T10:28:32;22.97;;;13.20;;
13969;SDS011;7057;49.984;8.404;2022-11-14T10:31:22;22.70;;;13.67;;
13969;SDS011;7057;49.984;8.404;2022-11-14T10:34:01;21.53;;;12.77;;
13969;SDS011;7057;49.984;8.404;2022-11-14T10:39:22;22.47;;;13.50;;
13969;SDS011;7057;49.984;8.404;2022-11-14T10:41:55;13.97;;;8.63;;
13969;SDS011;7057;49.984;8.404;2022-11-14T10:44:28;17.97;;;10.70;;
13969;SDS011;7057;49.984;8.404;2022-11-14T10:47:00;16.50;;;10.57;;
13969;SDS011;7057;49.984;8.404;2022-11-14T10:49:31;17.10;;;11.97;;
13969;SDS011;7057;49.984;8.404;2022-11-14T10:52:02;16.33;;;12.00;;
13969;SDS011;7057;49.984;8.404;2022-11-14T10:54:33;15.63;;;11.00;;
13969;SDS011;7057;49.984;8.404;2022-11-14T10:57:12;18.80;;;11.00;;
13969;SDS011;7057;49.984;8.404;2022-11-14T10:59:41;18.30;;;11.17;;
13969;SDS011;7057;49.984;8.404;2022-11-14T11:02:08;15.07;;;10.47;;
13969;SDS011;7057;49.984;8.404;2022-11-14T11:04:37;15.73;;;10.53;;
13969;SDS011;7057;49.984;8.404;2022-11-14T11:07:22;15.70;;;10.93;;
13969;SDS011;7057;49.984;8.404;2022-11-14T11:10:18;18.17;;;11.37;;
13969;SDS011;7057;49.984;8.404;2022-11-14T11:13:04;16.77;;;11.10;;
13969;SDS011;7057;49.984;8.404;2022-11-14T11:15:31;14.73;;;10.23;;
13969;SDS011;7057;49.984;8.404;2022-11-14T11:18:20;16.37;;;10.97;;
13969;SDS011;7057;49.984;8.404;2022-11-14T11:21:01;15.90;;;9.97;;
13969;SDS011;7057;49.984;8.404;2022-11-14T11:23:33;16.43;;;9.80;;
13969;SDS011;7057;49.984;8.404;2022-11-14T11:26:02;13.53;;;9.53;;
13969;SDS011;7057;49.984;8.404;2022-11-14T11:28:33;15.13;;;9.70;;
13969;SDS011;7057;49.984;8.404;2022-11-14T11:31:03;13.83;;;8.00;;
13969;SDS011;7057;49.984;8.404;2022-11-14T11:33:32;13.33;;;8.80;;
13969;SDS011;7057;49.984;8.404;2022-11-14T11:36:02;14.90;;;10.23;;
13969;SDS011;7057;49.984;8.404;2022-11-14T11:38:31;11.40;;;8.07;;
13969;SDS011;7057;49.984;8.404;2022-11-14T11:41:02;13.13;;;9.60;;
13969;SDS011;7057;49.984;8.404;2022-11-14T11:43:35;13.10;;;7.77;;
13969;SDS011;7057;49.984;8.404;2022-11-14T11:46:08;13.80;;;9.07;;
13969;SDS011;7057;49.984;8.404;2022-11-14T11:48:40;12.63;;;8.63;;
13969;SDS011;7057;49.984;8.404;2022-11-14T11:51:11;12.23;;;8.93;;
13969;SDS011;7057;49.984;8.404;2022-11-14T11:53:42;15.73;;;9.13;;
13969;SDS011;7057;49.984;8.404;2022-11-14T11:56:13;13.13;;;9.23;;
13969;SDS011;7057;49.984;8.404;2022-11-14T11:58:46;12.13;;;8.73;;
13969;SDS011;7057;49.984;8.404;2022-11-14T12:01:15;11.80;;;8.47;;
13969;SDS011;7057;49.984;8.404;2022-11-14T12:03:44;11.07;;;8.17;;
13969;SDS011;7057;49.984;8.404;2022-11-14T12:06:16;11.17;;;8.30;;
13969;SDS011;7057;49.984;8.404;2022-11-14T12:08:53;11.23;;;7.30;;
13969;SDS011;7057;49.984;8.404;2022-11-14T12:11:31;13.03;;;7.93;;
13969;SDS011;7057;49.984;8.404;2022-11-14T12:14:08;13.00;;;7.87;;
13969;SDS011;7057;49.984;8.404;2022-11-14T12:16:57;11.27;;;7.80;;
13969;SDS011;7057;49.984;8.404;2022-11-14T12:19:55;9.10;;;7.47;;
13969;SDS011;7057;49.984;8.404;2022-11-14T12:22:45;13.07;;;8.27;;
13969;SDS011;7057;49.984;8.404;2022-11-14T12:25:37;12.00;;;7.73;;
13969;SDS011;7057;49.984;8.404;2022-11-14T12:28:14;11.37;;;7.63;;
13969;SDS011;7057;49.984;8.404;2022-11-14T12:30:57;13.57;;;7.80;;
13969;SDS011;7057;49.984;8.404;2022-11-14T12:33:27;11.27;;;7.87;;
13969;SDS011;7057;49.984;8.404;2022-11-14T12:35:58;9.60;;;7.43;;
13969;SDS011;7057;49.984;8.404;2022-11-14T12:38:29;11.33;;;7.10;;
13969;SDS011;7057;49.984;8.404;2022-11-14T12:41:00;11.03;;;7.93;;
13969;SDS011;7057;49.984;8.404;2022-11-14T12:43:32;11.87;;;7.23;;
13969;SDS011;7057;49.984;8.404;2022-11-14T12:46:01;11.03;;;7.53;;
13969;SDS011;7057;49.984;8.404;2022-11-14T12:48:34;12.03;;;8.27;;
13969;SDS011;7057;49.984;8.404;2022-11-14T12:51:03;9.80;;;7.53;;
13969;SDS011;7057;49.984;8.404;2022-11-14T12:53:53;10.30;;;7.57;;
13969;SDS011;7057;49.984;8.404;2022-11-14T12:59:27;10.43;;;7.13;;
13969;SDS011;7057;49.984;8.404;2022-11-14T13:02:16;11.20;;;8.43;;
13969;SDS011;7057;49.984;8.404;2022-11-14T13:05:00;12.02;;;8.07;;
13969;SDS011;7057;49.984;8.404;2022-11-14T13:07:44;10.82;;;7.97;;
13969;SDS011;7057;49.984;8.404;2022-11-14T13:10:23;13.53;;;8.50;;
13969;SDS011;7057;49.984;8.404;2022-11-14T13:12:56;12.77;;;8.67;;
13969;SDS011;7057;49.984;8.404;2022-11-14T13:15:46;11.63;;;7.87;;
13969;SDS011;7057;49.984;8.404;2022-11-14T13:18:33;12.47;;;7.77;;
13969;SDS011;7057;49.984;8.404;2022-11-14T13:21:20;9.77;;;7.60;;
13969;SDS011;7057;49.984;8.404;2022-11-14T13:24:07;11.90;;;8.03;;
13969;SDS011;7057;49.984;8.404;2022-11-14T13:26:40;11.67;;;7.97;;
13969;SDS011;7057;49.984;8.404;2022-11-14T13:35:39;11.43;;;7.67;;
13969;SDS011;7057;49.984;8.404;2022-11-14T13:41:34;10.27;;;8.00;;
13969;SDS011;7057;49.984;8.404;2022-11-14T13:47:26;11.80;;;8.00;;
13969;SDS011;7057;49.984;8.404;2022-11-14T13:50:06;11.83;;;8.30;;
13969;SDS011;7057;49.984;8.404;2022-11-14T13:52:39;11.30;;;7.87;;
13969;SDS011;7057;49.984;8.404;2022-11-14T13:55:15;10.07;;;7.77;;
13969;SDS011;7057;49.984;8.404;2022-11-14T13:57:51;9.97;;;7.90;;
13969;SDS011;7057;49.984;8.404;2022-11-14T14:00:28;10.80;;;7.10;;
13969;SDS011;7057;49.984;8.404;2022-11-14T14:03:22;11.80;;;8.40;;
13969;SDS011;7057;49.984;8.404;2022-11-14T14:06:11;11.93;;;7.73;;
13969;SDS011;7057;49.984;8.404;2022-11-14T14:08:56;12.33;;;7.73;;
13969;SDS011;7057;49.984;8.404;2022-11-14T14:11:39;13.23;;;8.90;;
13969;SDS011;7057;49.984;8.404;2022-11-14T14:14:24;14.27;;;8.60;;
13969;SDS011;7057;49.984;8.404;2022-11-14T14:17:02;14.67;;;8.60;;
13969;SDS011;7057;49.984;8.404;2022-11-14T14:19:39;12.07;;;8.50;;
13969;SDS011;7057;49.984;8.404;2022-11-14T14:22:14;10.27;;;7.77;;
13969;SDS011;7057;49.984;8.404;2022-11-14T14:24:50;11.27;;;8.27;;
13969;SDS011;7057;49.984;8.404;2022-11-14T14:27:23;11.27;;;8.33;;
13969;SDS011;7057;49.984;8.404;2022-11-14T14:29:59;11.87;;;7.67;;
13969;SDS011;7057;49.984;8.404;2022-11-14T14:32:32;10.87;;;7.37;;
13969;SDS011;7057;49.984;8.404;2022-11-14T14:34:59;9.87;;;7.57;;
13969;SDS011;7057;49.984;8.404;2022-11-14T14:37:50;11.97;;;6.90;;
13969;SDS011;7057;49.984;8.404;2022-11-14T14:40:22;11.40;;;7.57;;
13969;SDS011;7057;49.984;8.404;2022-11-14T14:42:52;12.63;;;7.17;;
13969;SDS011;7057;49.984;8.404;2022-11-14T14:45:23;11.87;;;7.67;;
13969;SDS011;7057;49.984;8.404;2022-11-14T14:47:57;11.10;;;7.67;;
13969;SDS011;7057;49.984;8.404;2022-11-14T14:50:28;10.27;;;7.67;;
13969;SDS011;7057;49.984;8.404;2022-11-14T14:53:01;10.23;;;7.20;;
13969;SDS011;7057;49.984;8.404;2022-11-14T14:55:29;12.60;;;7.23;;
13969;SDS011;7057;49.984;8.404;2022-11-14T14:58:11;10.63;;;7.03;;
13969;SDS011;7057;49.984;8.404;2022-11-14T15:00:42;9.37;;;6.63;;
13969;SDS011;7057;49.984;8.404;2022-11-14T15:03:18;10.67;;;7.93;;
13969;SDS011;7057;49.984;8.404;2022-11-14T15:05:46;13.17;;;8.10;;
13969;SDS011;7057;49.984;8.404;2022-11-14T15:08:14;10.93;;;7.60;;
13969;SDS011;7057;49.984;8.404;2022-11-14T15:10:42;12.00;;;8.10;;
13969;SDS011;7057;49.984;8.404;2022-11-14T15:13:10;11.47;;;8.10;;
13969;SDS011;7057;49.984;8.404;2022-11-14T15:15:42;9.60;;;7.20;;
13969;SDS011;7057;49.984;8.404;2022-11-14T15:18:13;10.20;;;7.33;;
13969;SDS011;7057;49.984;8.404;2022-11-14T15:23:39;11.10;;;7.20;;
13969;SDS011;7057;49.984;8.404;2022-11-14T15:26:12;11.07;;;7.10;;
13969;SDS011;7057;49.984;8.404;2022-11-14T15:28:42;12.13;;;8.07;;